sensor_id;sensor_type;location;lat;lon;timestamp;P1;durP1;ratioP1;P2;durP2;ratioP2
9934;SDS011;5006;41.828;23.478;2024-01-07T00:00:38;2.72;;;2.03;;
9934;SDS011;5006;41.828;23.478;2024-01-07T00:01:46;3.55;;;2.05;;
9934;SDS011;5006;41.828;23.478;2024-01-07T00:02:53;3.40;;;2.15;;
9934;SDS011;5006;41.828;23.478;2024-01-07T00:03:59;5.28;;;2.20;;
9934;SDS011;5006;41.828;23.478;2024-01-07T00:05:05;2.75;;;2.22;;
9934;SDS011;5006;41.828;23.478;2024-01-07T00:06:11;3.63;;;1.88;;
9934;SDS011;5006;41.828;23.478;2024-01-07T00:07:18;3.35;;;1.88;;
9934;SDS011;5006;41.828;23.478;2024-01-07T00:08:25;3.97;;;2.10;;
9934;SDS011;5006;41.828;23.478;2024-01-07T00:09:33;3.38;;;1.90;;
9934;SDS011;5006;41.828;23.478;2024-01-07T00:10:39;3.10;;;2.00;;
9934;SDS011;5006;41.828;23.478;2024-01-07T00:11:46;3.50;;;2.17;;
9934;SDS011;5006;41.828;23.478;2024-01-07T00:12:51;2.83;;;2.13;;
9934;SDS011;5006;41.828;23.478;2024-01-07T00:13:58;5.75;;;2.40;;
9934;SDS011;5006;41.828;23.478;2024-01-07T00:15:03;5.45;;;2.38;;
9934;SDS011;5006;41.828;23.478;2024-01-07T00:16:10;3.13;;;1.80;;
9934;SDS011;5006;41.828;23.478;2024-01-07T00:17:16;2.72;;;1.77;;
9934;SDS011;5006;41.828;23.478;2024-01-07T00:18:21;2.30;;;2.08;;
9934;SDS011;5006;41.828;23.478;2024-01-07T00:19:29;2.75;;;1.98;;
9934;SDS011;5006;41.828;23.478;2024-01-07T00:20:36;3.55;;;2.15;;
9934;SDS011;5006;41.828;23.478;2024-01-07T00:21:41;2.92;;;1.58;;
9934;SDS011;5006;41.828;23.478;2024-01-07T00:22:48;3.50;;;1.75;;
9934;SDS011;5006;41.828;23.478;2024-01-07T00:23:54;3.25;;;1.70;;
9934;SDS011;5006;41.828;23.478;2024-01-07T00:25:01;3.50;;;1.70;;
9934;SDS011;5006;41.828;23.478;2024-01-07T00:26:07;3.95;;;1.55;;
9934;SDS011;5006;41.828;23.478;2024-01-07T00:27:15;2.83;;;1.70;;
9934;SDS011;5006;41.828;23.478;2024-01-07T00:28:20;2.95;;;1.42;;
9934;SDS011;5006;41.828;23.478;2024-01-07T00:29:25;2.05;;;1.17;;
9934;SDS011;5006;41.828;23.478;2024-01-07T00:30:31;2.45;;;1.40;;
9934;SDS011;5006;41.828;23.478;2024-01-07T00:31:39;2.58;;;1.58;;
9934;SDS011;5006;41.828;23.478;2024-01-07T00:32:46;1.92;;;1.40;;
9934;SDS011;5006;41.828;23.478;2024-01-07T00:33:56;3.38;;;1.77;;
9934;SDS011;5006;41.828;23.478;2024-01-07T00:35:02;3.42;;;1.40;;
9934;SDS011;5006;41.828;23.478;2024-01-07T00:36:09;3.22;;;1.52;;
9934;SDS011;5006;41.828;23.478;2024-01-07T00:37:14;2.63;;;1.70;;
9934;SDS011;5006;41.828;23.478;2024-01-07T00:38:19;2.75;;;1.52;;
9934;SDS011;5006;41.828;23.478;2024-01-07T00:39:24;2.80;;;1.70;;
9934;SDS011;5006;41.828;23.478;2024-01-07T00:40:32;3.22;;;1.50;;
9934;SDS011;5006;41.828;23.478;2024-01-07T00:41:38;1.58;;;1.02;;
9934;SDS011;5006;41.828;23.478;2024-01-07T00:42:45;2.60;;;1.50;;
9934;SDS011;5006;41.828;23.478;2024-01-07T00:43:50;2.65;;;1.75;;
9934;SDS011;5006;41.828;23.478;2024-01-07T00:44:57;3.22;;;1.50;;
9934;SDS011;5006;41.828;23.478;2024-01-07T00:46:03;1.67;;;1.50;;
9934;SDS011;5006;41.828;23.478;2024-01-07T00:47:11;5.30;;;1.63;;
9934;SDS011;5006;41.828;23.478;2024-01-07T00:48:16;1.60;;;1.20;;
9934;SDS011;5006;41.828;23.478;2024-01-07T00:49:22;1.88;;;1.30;;
9934;SDS011;5006;41.828;23.478;2024-01-07T00:50:27;1.73;;;1.23;;
9934;SDS011;5006;41.828;23.478;2024-01-07T00:51:33;1.60;;;1.08;;
9934;SDS011;5006;41.828;23.478;2024-01-07T00:52:37;1.63;;;1.20;;
9934;SDS011;5006;41.828;23.478;2024-01-07T00:53:47;1.45;;;1.20;;
9934;SDS011;5006;41.828;23.478;2024-01-07T00:54:53;2.10;;;1.10;;
9934;SDS011;5006;41.828;23.478;2024-01-07T00:56:01;2.10;;;1.33;;
9934;SDS011;5006;41.828;23.478;2024-01-07T00:57:07;1.73;;;1.20;;
9934;SDS011;5006;41.828;23.478;2024-01-07T00:58:13;2.08;;;1.30;;
9934;SDS011;5006;41.828;23.478;2024-01-07T00:59:19;1.42;;;1.20;;
9934;SDS011;5006;41.828;23.478;2024-01-07T01:00:25;1.80;;;1.35;;
9934;SDS011;5006;41.828;23.478;2024-01-07T01:01:31;2.70;;;1.40;;
9934;SDS011;5006;41.828;23.478;2024-01-07T01:02:38;1.90;;;1.30;;
9934;SDS011;5006;41.828;23.478;2024-01-07T01:03:44;1.88;;;1.20;;
9934;SDS011;5006;41.828;23.478;2024-01-07T01:04:49;1.35;;;1.23;;
9934;SDS011;5006;41.828;23.478;2024-01-07T01:05:55;3.03;;;1.55;;
9934;SDS011;5006;41.828;23.478;2024-01-07T01:07:01;2.63;;;1.50;;
9934;SDS011;5006;41.828;23.478;2024-01-07T01:08:07;1.73;;;1.10;;
9934;SDS011;5006;41.828;23.478;2024-01-07T01:09:14;2.10;;;1.40;;
9934;SDS011;5006;41.828;23.478;2024-01-07T01:10:19;1.75;;;1.50;;
9934;SDS011;5006;41.828;23.478;2024-01-07T01:11:27;2.92;;;1.80;;
9934;SDS011;5006;41.828;23.478;2024-01-07T01:12:32;3.42;;;2.10;;
9934;SDS011;5006;41.828;23.478;2024-01-07T01:13:39;2.35;;;1.42;;
9934;SDS011;5006;41.828;23.478;2024-01-07T01:14:45;3.47;;;1.30;;
9934;SDS011;5006;41.828;23.478;2024-01-07T01:15:50;2.80;;;1.40;;
9934;SDS011;5006;41.828;23.478;2024-01-07T01:16:57;2.22;;;1.30;;
9934;SDS011;5006;41.828;23.478;2024-01-07T01:18:04;4.80;;;1.60;;
9934;SDS011;5006;41.828;23.478;2024-01-07T01:19:09;2.53;;;1.45;;
9934;SDS011;5006;41.828;23.478;2024-01-07T01:20:16;3.50;;;1.30;;
9934;SDS011;5006;41.828;23.478;2024-01-07T01:21:22;3.75;;;1.40;;
9934;SDS011;5006;41.828;23.478;2024-01-07T01:22:28;3.08;;;1.40;;
9934;SDS011;5006;41.828;23.478;2024-01-07T01:23:33;1.40;;;1.30;;
9934;SDS011;5006;41.828;23.478;2024-01-07T01:24:38;1.88;;;1.38;;
9934;SDS011;5006;41.828;23.478;2024-01-07T01:25:44;2.33;;;1.42;;
9934;SDS011;5006;41.828;23.478;2024-01-07T01:26:53;2.25;;;1.38;;
9934;SDS011;5006;41.828;23.478;2024-01-07T01:27:59;2.72;;;1.40;;
9934;SDS011;5006;41.828;23.478;2024-01-07T01:29:06;3.60;;;1.50;;
9934;SDS011;5006;41.828;23.478;2024-01-07T01:30:11;3.05;;;1.40;;
9934;SDS011;5006;41.828;23.478;2024-01-07T01:31:18;3.63;;;1.60;;
9934;SDS011;5006;41.828;23.478;2024-01-07T01:32:24;1.83;;;1.35;;
9934;SDS011;5006;41.828;23.478;2024-01-07T01:33:31;3.28;;;1.40;;
9934;SDS011;5006;41.828;23.478;2024-01-07T01:34:36;2.05;;;1.20;;
9934;SDS011;5006;41.828;23.478;2024-01-07T01:35:41;2.72;;;1.50;;
9934;SDS011;5006;41.828;23.478;2024-01-07T01:36:47;3.92;;;1.60;;
9934;SDS011;5006;41.828;23.478;2024-01-07T01:37:54;2.78;;;1.73;;
9934;SDS011;5006;41.828;23.478;2024-01-07T01:38:58;1.85;;;1.60;;
9934;SDS011;5006;41.828;23.478;2024-01-07T01:40:04;3.10;;;1.90;;
9934;SDS011;5006;41.828;23.478;2024-01-07T01:41:11;3.03;;;1.70;;
9934;SDS011;5006;41.828;23.478;2024-01-07T01:42:18;2.30;;;1.60;;
9934;SDS011;5006;41.828;23.478;2024-01-07T01:43:25;1.63;;;1.33;;
9934;SDS011;5006;41.828;23.478;2024-01-07T01:44:32;2.33;;;1.40;;
9934;SDS011;5006;41.828;23.478;2024-01-07T01:45:38;2.95;;;1.60;;
9934;SDS011;5006;41.828;23.478;2024-01-07T01:46:44;3.75;;;2.00;;
9934;SDS011;5006;41.828;23.478;2024-01-07T01:47:50;4.70;;;2.20;;
9934;SDS011;5006;41.828;23.478;2024-01-07T01:48:55;3.15;;;1.65;;
9934;SDS011;5006;41.828;23.478;2024-01-07T01:50:03;1.45;;;1.25;;
9934;SDS011;5006;41.828;23.478;2024-01-07T01:51:10;2.80;;;1.80;;
9934;SDS011;5006;41.828;23.478;2024-01-07T01:52:16;1.60;;;1.20;;
9934;SDS011;5006;41.828;23.478;2024-01-07T01:53:23;2.28;;;1.70;;
9934;SDS011;5006;41.828;23.478;2024-01-07T01:54:30;1.77;;;1.55;;
9934;SDS011;5006;41.828;23.478;2024-01-07T01:55:35;2.33;;;1.70;;
9934;SDS011;5006;41.828;23.478;2024-01-07T01:56:41;2.30;;;1.52;;
9934;SDS011;5006;41.828;23.478;2024-01-07T01:57:49;2.47;;;1.60;;
9934;SDS011;5006;41.828;23.478;2024-01-07T01:58:57;3.47;;;2.10;;
9934;SDS011;5006;41.828;23.478;2024-01-07T02:00:04;2.45;;;1.70;;
9934;SDS011;5006;41.828;23.478;2024-01-07T02:01:11;4.45;;;1.80;;
9934;SDS011;5006;41.828;23.478;2024-01-07T02:02:18;2.10;;;1.67;;
9934;SDS011;5006;41.828;23.478;2024-01-07T02:03:23;3.50;;;1.52;;
9934;SDS011;5006;41.828;23.478;2024-01-07T02:04:31;3.35;;;1.50;;
9934;SDS011;5006;41.828;23.478;2024-01-07T02:05:37;4.05;;;2.08;;
9934;SDS011;5006;41.828;23.478;2024-01-07T02:06:44;3.17;;;1.67;;
9934;SDS011;5006;41.828;23.478;2024-01-07T02:07:50;4.68;;;1.60;;
9934;SDS011;5006;41.828;23.478;2024-01-07T02:08:57;2.20;;;1.50;;
9934;SDS011;5006;41.828;23.478;2024-01-07T02:10:04;4.80;;;1.95;;
9934;SDS011;5006;41.828;23.478;2024-01-07T02:11:14;2.55;;;1.60;;
9934;SDS011;5006;41.828;23.478;2024-01-07T02:12:21;2.00;;;1.40;;
9934;SDS011;5006;41.828;23.478;2024-01-07T02:13:28;3.17;;;1.50;;
9934;SDS011;5006;41.828;23.478;2024-01-07T02:14:36;1.27;;;1.15;;
9934;SDS011;5006;41.828;23.478;2024-01-07T02:15:40;1.77;;;1.27;;
9934;SDS011;5006;41.828;23.478;2024-01-07T02:16:47;2.00;;;1.80;;
9934;SDS011;5006;41.828;23.478;2024-01-07T02:17:53;2.95;;;1.90;;
9934;SDS011;5006;41.828;23.478;2024-01-07T02:18:59;2.88;;;1.80;;
9934;SDS011;5006;41.828;23.478;2024-01-07T02:20:05;3.08;;;1.60;;
9934;SDS011;5006;41.828;23.478;2024-01-07T02:21:13;3.10;;;1.80;;
9934;SDS011;5006;41.828;23.478;2024-01-07T02:22:19;4.72;;;1.60;;
9934;SDS011;5006;41.828;23.478;2024-01-07T02:23:27;3.05;;;1.50;;
9934;SDS011;5006;41.828;23.478;2024-01-07T02:24:33;2.28;;;1.60;;
9934;SDS011;5006;41.828;23.478;2024-01-07T02:25:39;1.38;;;0.88;;
9934;SDS011;5006;41.828;23.478;2024-01-07T02:26:45;1.10;;;0.98;;
9934;SDS011;5006;41.828;23.478;2024-01-07T02:27:51;1.58;;;1.10;;
9934;SDS011;5006;41.828;23.478;2024-01-07T02:28:57;3.25;;;1.30;;
9934;SDS011;5006;41.828;23.478;2024-01-07T02:30:04;1.25;;;0.90;;
9934;SDS011;5006;41.828;23.478;2024-01-07T02:31:11;0.82;;;0.50;;
9934;SDS011;5006;41.828;23.478;2024-01-07T02:32:22;0.75;;;0.75;;
9934;SDS011;5006;41.828;23.478;2024-01-07T02:33:28;0.82;;;0.65;;
9934;SDS011;5006;41.828;23.478;2024-01-07T02:34:34;2.05;;;0.60;;
9934;SDS011;5006;41.828;23.478;2024-01-07T02:35:41;0.90;;;0.40;;
9934;SDS011;5006;41.828;23.478;2024-01-07T02:36:48;0.50;;;0.50;;
9934;SDS011;5006;41.828;23.478;2024-01-07T02:37:53;1.60;;;1.35;;
9934;SDS011;5006;41.828;23.478;2024-01-07T02:38:59;5.07;;;2.60;;
9934;SDS011;5006;41.828;23.478;2024-01-07T02:40:07;6.43;;;4.03;;
9934;SDS011;5006;41.828;23.478;2024-01-07T02:41:14;6.97;;;4.40;;
9934;SDS011;5006;41.828;23.478;2024-01-07T02:42:19;8.55;;;4.90;;
9934;SDS011;5006;41.828;23.478;2024-01-07T02:43:24;4.80;;;3.03;;
9934;SDS011;5006;41.828;23.478;2024-01-07T02:44:29;4.72;;;3.22;;
9934;SDS011;5006;41.828;23.478;2024-01-07T02:45:37;5.13;;;3.72;;
9934;SDS011;5006;41.828;23.478;2024-01-07T02:46:42;5.47;;;3.50;;
9934;SDS011;5006;41.828;23.478;2024-01-07T02:47:51;5.13;;;3.05;;
9934;SDS011;5006;41.828;23.478;2024-01-07T02:48:57;3.13;;;2.58;;
9934;SDS011;5006;41.828;23.478;2024-01-07T02:50:05;4.10;;;2.97;;
9934;SDS011;5006;41.828;23.478;2024-01-07T02:51:10;2.78;;;1.60;;
9934;SDS011;5006;41.828;23.478;2024-01-07T02:52:16;2.28;;;1.08;;
9934;SDS011;5006;41.828;23.478;2024-01-07T02:53:22;2.25;;;0.50;;
9934;SDS011;5006;41.828;23.478;2024-01-07T02:54:27;1.20;;;0.80;;
9934;SDS011;5006;41.828;23.478;2024-01-07T02:55:34;3.17;;;1.48;;
9934;SDS011;5006;41.828;23.478;2024-01-07T02:56:41;1.52;;;1.13;;
9934;SDS011;5006;41.828;23.478;2024-01-07T02:57:46;3.47;;;1.50;;
9934;SDS011;5006;41.828;23.478;2024-01-07T02:58:52;2.05;;;1.40;;
9934;SDS011;5006;41.828;23.478;2024-01-07T02:59:56;2.60;;;1.30;;
9934;SDS011;5006;41.828;23.478;2024-01-07T03:01:03;2.10;;;1.77;;
9934;SDS011;5006;41.828;23.478;2024-01-07T03:02:13;2.53;;;1.63;;
9934;SDS011;5006;41.828;23.478;2024-01-07T03:03:20;2.13;;;1.77;;
9934;SDS011;5006;41.828;23.478;2024-01-07T03:04:25;2.03;;;1.35;;
9934;SDS011;5006;41.828;23.478;2024-01-07T03:05:32;1.77;;;1.33;;
9934;SDS011;5006;41.828;23.478;2024-01-07T03:06:39;1.80;;;1.30;;
9934;SDS011;5006;41.828;23.478;2024-01-07T03:07:46;2.33;;;1.45;;
9934;SDS011;5006;41.828;23.478;2024-01-07T03:08:52;1.92;;;0.93;;
9934;SDS011;5006;41.828;23.478;2024-01-07T03:09:59;1.73;;;1.30;;
9934;SDS011;5006;41.828;23.478;2024-01-07T03:11:06;1.30;;;1.10;;
9934;SDS011;5006;41.828;23.478;2024-01-07T03:12:14;2.92;;;2.05;;
9934;SDS011;5006;41.828;23.478;2024-01-07T03:13:20;3.83;;;2.60;;
9934;SDS011;5006;41.828;23.478;2024-01-07T03:14:27;5.57;;;4.15;;
9934;SDS011;5006;41.828;23.478;2024-01-07T03:15:32;8.63;;;6.40;;
9934;SDS011;5006;41.828;23.478;2024-01-07T03:16:38;5.13;;;4.07;;
9934;SDS011;5006;41.828;23.478;2024-01-07T03:17:44;3.05;;;1.35;;
9934;SDS011;5006;41.828;23.478;2024-01-07T03:18:49;1.23;;;0.90;;
9934;SDS011;5006;41.828;23.478;2024-01-07T03:19:56;2.10;;;1.10;;
9934;SDS011;5006;41.828;23.478;2024-01-07T03:21:02;1.15;;;1.00;;
9934;SDS011;5006;41.828;23.478;2024-01-07T03:22:09;1.80;;;1.45;;
9934;SDS011;5006;41.828;23.478;2024-01-07T03:23:15;1.20;;;0.85;;
9934;SDS011;5006;41.828;23.478;2024-01-07T03:24:23;1.02;;;0.90;;
9934;SDS011;5006;41.828;23.478;2024-01-07T03:25:28;0.57;;;0.50;;
9934;SDS011;5006;41.828;23.478;2024-01-07T03:26:36;0.60;;;0.50;;
9934;SDS011;5006;41.828;23.478;2024-01-07T03:27:42;1.65;;;0.60;;
9934;SDS011;5006;41.828;23.478;2024-01-07T03:28:48;1.30;;;0.57;;
9934;SDS011;5006;41.828;23.478;2024-01-07T03:29:54;0.95;;;0.60;;
9934;SDS011;5006;41.828;23.478;2024-01-07T03:30:58;1.48;;;0.60;;
9934;SDS011;5006;41.828;23.478;2024-01-07T03:32:09;0.63;;;0.60;;
9934;SDS011;5006;41.828;23.478;2024-01-07T03:33:15;1.20;;;0.60;;
9934;SDS011;5006;41.828;23.478;2024-01-07T03:34:20;2.13;;;0.90;;
9934;SDS011;5006;41.828;23.478;2024-01-07T03:35:25;1.13;;;0.68;;
9934;SDS011;5006;41.828;23.478;2024-01-07T03:36:31;0.82;;;0.60;;
9934;SDS011;5006;41.828;23.478;2024-01-07T03:37:37;0.60;;;0.60;;
9934;SDS011;5006;41.828;23.478;2024-01-07T03:38:42;0.47;;;0.45;;
9934;SDS011;5006;41.828;23.478;2024-01-07T03:39:48;0.65;;;0.40;;
9934;SDS011;5006;41.828;23.478;2024-01-07T03:40:54;0.43;;;0.43;;
9934;SDS011;5006;41.828;23.478;2024-01-07T03:42:02;1.25;;;0.70;;
9934;SDS011;5006;41.828;23.478;2024-01-07T03:43:08;2.38;;;0.90;;
9934;SDS011;5006;41.828;23.478;2024-01-07T03:44:13;1.25;;;0.80;;
9934;SDS011;5006;41.828;23.478;2024-01-07T03:45:19;1.50;;;0.70;;
9934;SDS011;5006;41.828;23.478;2024-01-07T03:46:25;1.55;;;0.68;;
9934;SDS011;5006;41.828;23.478;2024-01-07T03:47:30;0.60;;;0.60;;
9934;SDS011;5006;41.828;23.478;2024-01-07T03:48:37;0.77;;;0.73;;
9934;SDS011;5006;41.828;23.478;2024-01-07T03:49:41;3.22;;;1.85;;
9934;SDS011;5006;41.828;23.478;2024-01-07T03:50:47;1.60;;;1.40;;
9934;SDS011;5006;41.828;23.478;2024-01-07T03:51:53;2.50;;;1.45;;
9934;SDS011;5006;41.828;23.478;2024-01-07T03:53:00;1.98;;;1.20;;
9934;SDS011;5006;41.828;23.478;2024-01-07T03:54:05;2.00;;;1.60;;
9934;SDS011;5006;41.828;23.478;2024-01-07T03:55:12;1.63;;;1.33;;
9934;SDS011;5006;41.828;23.478;2024-01-07T03:56:18;1.40;;;1.00;;
9934;SDS011;5006;41.828;23.478;2024-01-07T03:57:26;1.23;;;1.00;;
9934;SDS011;5006;41.828;23.478;2024-01-07T03:58:32;2.13;;;1.10;;
9934;SDS011;5006;41.828;23.478;2024-01-07T03:59:39;1.63;;;1.33;;
9934;SDS011;5006;41.828;23.478;2024-01-07T04:00:45;1.95;;;1.63;;
9934;SDS011;5006;41.828;23.478;2024-01-07T04:01:53;2.20;;;1.70;;
9934;SDS011;5006;41.828;23.478;2024-01-07T04:03:01;2.28;;;1.70;;
9934;SDS011;5006;41.828;23.478;2024-01-07T04:04:07;1.50;;;1.40;;
9934;SDS011;5006;41.828;23.478;2024-01-07T04:05:12;2.58;;;1.38;;
9934;SDS011;5006;41.828;23.478;2024-01-07T04:06:20;2.72;;;1.85;;
9934;SDS011;5006;41.828;23.478;2024-01-07T04:07:25;1.60;;;1.13;;
9934;SDS011;5006;41.828;23.478;2024-01-07T04:08:30;0.90;;;0.70;;
9934;SDS011;5006;41.828;23.478;2024-01-07T04:09:37;2.13;;;0.77;;
9934;SDS011;5006;41.828;23.478;2024-01-07T04:10:43;1.35;;;0.77;;
9934;SDS011;5006;41.828;23.478;2024-01-07T04:11:50;0.98;;;0.85;;
9934;SDS011;5006;41.828;23.478;2024-01-07T04:12:56;3.15;;;1.10;;
9934;SDS011;5006;41.828;23.478;2024-01-07T04:14:03;1.60;;;0.85;;
9934;SDS011;5006;41.828;23.478;2024-01-07T04:15:09;2.00;;;0.90;;
9934;SDS011;5006;41.828;23.478;2024-01-07T04:16:18;1.10;;;1.00;;
9934;SDS011;5006;41.828;23.478;2024-01-07T04:17:24;1.40;;;1.00;;
9934;SDS011;5006;41.828;23.478;2024-01-07T04:18:31;1.73;;;0.88;;
9934;SDS011;5006;41.828;23.478;2024-01-07T04:19:37;2.70;;;0.90;;
9934;SDS011;5006;41.828;23.478;2024-01-07T04:20:44;1.00;;;0.90;;
9934;SDS011;5006;41.828;23.478;2024-01-07T04:21:50;1.90;;;1.27;;
9934;SDS011;5006;41.828;23.478;2024-01-07T04:22:56;1.58;;;1.13;;
9934;SDS011;5006;41.828;23.478;2024-01-07T04:24:02;1.88;;;1.60;;
9934;SDS011;5006;41.828;23.478;2024-01-07T04:25:08;3.03;;;1.58;;
9934;SDS011;5006;41.828;23.478;2024-01-07T04:26:15;2.60;;;1.80;;
9934;SDS011;5006;41.828;23.478;2024-01-07T04:27:21;1.90;;;1.50;;
9934;SDS011;5006;41.828;23.478;2024-01-07T04:28:28;1.77;;;1.30;;
9934;SDS011;5006;41.828;23.478;2024-01-07T04:29:34;3.58;;;1.00;;
9934;SDS011;5006;41.828;23.478;2024-01-07T04:30:41;2.17;;;0.98;;
9934;SDS011;5006;41.828;23.478;2024-01-07T04:31:47;2.30;;;1.08;;
9934;SDS011;5006;41.828;23.478;2024-01-07T04:32:54;1.10;;;0.93;;
9934;SDS011;5006;41.828;23.478;2024-01-07T04:34:01;1.90;;;1.13;;
9934;SDS011;5006;41.828;23.478;2024-01-07T04:35:06;2.30;;;2.10;;
9934;SDS011;5006;41.828;23.478;2024-01-07T04:36:13;11.35;;;8.10;;
9934;SDS011;5006;41.828;23.478;2024-01-07T04:37:18;9.48;;;6.35;;
9934;SDS011;5006;41.828;23.478;2024-01-07T04:38:24;4.10;;;3.53;;
9934;SDS011;5006;41.828;23.478;2024-01-07T04:39:30;11.63;;;9.18;;
9934;SDS011;5006;41.828;23.478;2024-01-07T04:40:36;11.88;;;8.77;;
9934;SDS011;5006;41.828;23.478;2024-01-07T04:41:43;11.48;;;8.77;;
9934;SDS011;5006;41.828;23.478;2024-01-07T04:42:49;10.43;;;7.20;;
9934;SDS011;5006;41.828;23.478;2024-01-07T04:43:57;12.65;;;9.75;;
9934;SDS011;5006;41.828;23.478;2024-01-07T04:45:05;5.18;;;3.65;;
9934;SDS011;5006;41.828;23.478;2024-01-07T04:46:12;6.13;;;4.63;;
9934;SDS011;5006;41.828;23.478;2024-01-07T04:47:26;6.38;;;5.30;;
9934;SDS011;5006;41.828;23.478;2024-01-07T04:48:33;2.90;;;2.30;;
9934;SDS011;5006;41.828;23.478;2024-01-07T04:49:38;2.00;;;1.08;;
9934;SDS011;5006;41.828;23.478;2024-01-07T04:50:45;2.97;;;0.90;;
9934;SDS011;5006;41.828;23.478;2024-01-07T04:51:51;1.55;;;1.00;;
9934;SDS011;5006;41.828;23.478;2024-01-07T04:52:58;2.15;;;1.23;;
9934;SDS011;5006;41.828;23.478;2024-01-07T04:54:03;1.85;;;1.20;;
9934;SDS011;5006;41.828;23.478;2024-01-07T04:55:10;1.83;;;1.35;;
9934;SDS011;5006;41.828;23.478;2024-01-07T04:56:16;1.42;;;1.10;;
9934;SDS011;5006;41.828;23.478;2024-01-07T04:57:22;2.08;;;1.10;;
9934;SDS011;5006;41.828;23.478;2024-01-07T04:58:28;4.53;;;3.58;;
9934;SDS011;5006;41.828;23.478;2024-01-07T04:59:36;4.70;;;4.13;;
9934;SDS011;5006;41.828;23.478;2024-01-07T05:00:42;4.40;;;3.30;;
9934;SDS011;5006;41.828;23.478;2024-01-07T05:01:49;4.40;;;3.88;;
9934;SDS011;5006;41.828;23.478;2024-01-07T05:02:56;4.70;;;3.40;;
9934;SDS011;5006;41.828;23.478;2024-01-07T05:04:02;4.53;;;3.22;;
9934;SDS011;5006;41.828;23.478;2024-01-07T05:05:08;3.08;;;1.90;;
9934;SDS011;5006;41.828;23.478;2024-01-07T05:06:15;3.70;;;2.30;;
9934;SDS011;5006;41.828;23.478;2024-01-07T05:07:20;4.22;;;3.13;;
9934;SDS011;5006;41.828;23.478;2024-01-07T05:08:26;4.18;;;2.90;;
9934;SDS011;5006;41.828;23.478;2024-01-07T05:09:33;4.10;;;3.20;;
9934;SDS011;5006;41.828;23.478;2024-01-07T05:10:40;3.55;;;3.10;;
9934;SDS011;5006;41.828;23.478;2024-01-07T05:11:46;4.80;;;2.88;;
9934;SDS011;5006;41.828;23.478;2024-01-07T05:12:52;2.80;;;2.00;;
9934;SDS011;5006;41.828;23.478;2024-01-07T05:13:57;4.55;;;2.22;;
9934;SDS011;5006;41.828;23.478;2024-01-07T05:15:06;3.17;;;2.35;;
9934;SDS011;5006;41.828;23.478;2024-01-07T05:16:17;2.78;;;2.50;;
9934;SDS011;5006;41.828;23.478;2024-01-07T05:17:25;3.75;;;2.60;;
9934;SDS011;5006;41.828;23.478;2024-01-07T05:18:30;2.88;;;2.58;;
9934;SDS011;5006;41.828;23.478;2024-01-07T05:19:35;2.65;;;2.30;;
9934;SDS011;5006;41.828;23.478;2024-01-07T05:20:40;3.92;;;2.42;;
9934;SDS011;5006;41.828;23.478;2024-01-07T05:21:47;2.63;;;1.88;;
9934;SDS011;5006;41.828;23.478;2024-01-07T05:22:53;2.63;;;2.30;;
9934;SDS011;5006;41.828;23.478;2024-01-07T05:23:59;5.03;;;2.30;;
9934;SDS011;5006;41.828;23.478;2024-01-07T05:25:04;4.43;;;2.92;;
9934;SDS011;5006;41.828;23.478;2024-01-07T05:26:11;10.77;;;9.77;;
9934;SDS011;5006;41.828;23.478;2024-01-07T05:27:17;10.00;;;9.05;;
9934;SDS011;5006;41.828;23.478;2024-01-07T05:28:24;9.52;;;8.63;;
9934;SDS011;5006;41.828;23.478;2024-01-07T05:29:29;6.35;;;5.75;;
9934;SDS011;5006;41.828;23.478;2024-01-07T05:30:36;7.35;;;6.75;;
9934;SDS011;5006;41.828;23.478;2024-01-07T05:31:42;4.65;;;4.25;;
9934;SDS011;5006;41.828;23.478;2024-01-07T05:32:49;4.55;;;4.15;;
9934;SDS011;5006;41.828;23.478;2024-01-07T05:33:55;3.55;;;3.25;;
9934;SDS011;5006;41.828;23.478;2024-01-07T05:35:01;4.75;;;3.80;;
9934;SDS011;5006;41.828;23.478;2024-01-07T05:36:07;4.60;;;2.47;;
9934;SDS011;5006;41.828;23.478;2024-01-07T05:37:14;2.70;;;2.28;;
9934;SDS011;5006;41.828;23.478;2024-01-07T05:38:19;2.78;;;1.90;;
9934;SDS011;5006;41.828;23.478;2024-01-07T05:39:25;2.13;;;1.65;;
9934;SDS011;5006;41.828;23.478;2024-01-07T05:40:30;2.05;;;1.60;;
9934;SDS011;5006;41.828;23.478;2024-01-07T05:41:36;2.65;;;1.80;;
9934;SDS011;5006;41.828;23.478;2024-01-07T05:42:43;2.38;;;1.90;;
9934;SDS011;5006;41.828;23.478;2024-01-07T05:43:52;3.47;;;1.80;;
9934;SDS011;5006;41.828;23.478;2024-01-07T05:44:58;4.00;;;3.28;;
9934;SDS011;5006;41.828;23.478;2024-01-07T05:46:06;6.82;;;6.07;;
9934;SDS011;5006;41.828;23.478;2024-01-07T05:47:12;6.57;;;5.88;;
9934;SDS011;5006;41.828;23.478;2024-01-07T05:48:20;6.82;;;5.63;;
9934;SDS011;5006;41.828;23.478;2024-01-07T05:49:27;5.32;;;4.28;;
9934;SDS011;5006;41.828;23.478;2024-01-07T05:50:33;4.85;;;2.70;;
9934;SDS011;5006;41.828;23.478;2024-01-07T05:51:39;2.90;;;1.60;;
9934;SDS011;5006;41.828;23.478;2024-01-07T05:52:46;3.78;;;1.50;;
9934;SDS011;5006;41.828;23.478;2024-01-07T05:53:52;1.73;;;1.40;;
9934;SDS011;5006;41.828;23.478;2024-01-07T05:54:59;1.35;;;1.25;;
9934;SDS011;5006;41.828;23.478;2024-01-07T05:56:05;1.40;;;1.30;;
9934;SDS011;5006;41.828;23.478;2024-01-07T05:57:12;2.00;;;1.70;;
9934;SDS011;5006;41.828;23.478;2024-01-07T05:58:18;3.03;;;1.60;;
9934;SDS011;5006;41.828;23.478;2024-01-07T05:59:25;12.65;;;9.27;;
9934;SDS011;5006;41.828;23.478;2024-01-07T06:00:30;11.57;;;9.63;;
9934;SDS011;5006;41.828;23.478;2024-01-07T06:01:38;13.05;;;11.05;;
9934;SDS011;5006;41.828;23.478;2024-01-07T06:02:45;18.30;;;13.90;;
9934;SDS011;5006;41.828;23.478;2024-01-07T06:03:52;18.35;;;15.25;;
9934;SDS011;5006;41.828;23.478;2024-01-07T06:04:57;19.05;;;15.55;;
9934;SDS011;5006;41.828;23.478;2024-01-07T06:06:04;22.83;;;18.83;;
9934;SDS011;5006;41.828;23.478;2024-01-07T06:07:10;20.55;;;16.98;;
9934;SDS011;5006;41.828;23.478;2024-01-07T06:08:17;16.48;;;14.07;;
9934;SDS011;5006;41.828;23.478;2024-01-07T06:09:22;15.27;;;13.48;;
9934;SDS011;5006;41.828;23.478;2024-01-07T06:10:28;20.67;;;18.13;;
9934;SDS011;5006;41.828;23.478;2024-01-07T06:11:33;16.60;;;14.15;;
9934;SDS011;5006;41.828;23.478;2024-01-07T06:12:39;35.28;;;31.38;;
9934;SDS011;5006;41.828;23.478;2024-01-07T06:13:44;24.58;;;21.92;;
9934;SDS011;5006;41.828;23.478;2024-01-07T06:14:50;12.35;;;10.05;;
9934;SDS011;5006;41.828;23.478;2024-01-07T06:15:55;10.63;;;8.48;;
9934;SDS011;5006;41.828;23.478;2024-01-07T06:17:03;20.70;;;15.30;;
9934;SDS011;5006;41.828;23.478;2024-01-07T06:18:09;25.25;;;20.42;;
9934;SDS011;5006;41.828;23.478;2024-01-07T06:19:16;24.00;;;19.00;;
9934;SDS011;5006;41.828;23.478;2024-01-07T06:20:22;26.25;;;22.27;;
9934;SDS011;5006;41.828;23.478;2024-01-07T06:21:29;27.92;;;21.10;;
9934;SDS011;5006;41.828;23.478;2024-01-07T06:22:33;28.08;;;24.98;;
9934;SDS011;5006;41.828;23.478;2024-01-07T06:23:40;29.27;;;25.17;;
9934;SDS011;5006;41.828;23.478;2024-01-07T06:24:45;30.17;;;25.02;;
9934;SDS011;5006;41.828;23.478;2024-01-07T06:25:52;20.35;;;17.05;;
9934;SDS011;5006;41.828;23.478;2024-01-07T06:26:58;20.38;;;15.65;;
9934;SDS011;5006;41.828;23.478;2024-01-07T06:28:05;15.40;;;11.32;;
9934;SDS011;5006;41.828;23.478;2024-01-07T06:29:11;13.32;;;9.90;;
9934;SDS011;5006;41.828;23.478;2024-01-07T06:30:17;19.08;;;14.93;;
9934;SDS011;5006;41.828;23.478;2024-01-07T06:31:24;14.70;;;11.82;;
9934;SDS011;5006;41.828;23.478;2024-01-07T06:32:32;12.90;;;10.00;;
9934;SDS011;5006;41.828;23.478;2024-01-07T06:33:38;8.80;;;7.82;;
9934;SDS011;5006;41.828;23.478;2024-01-07T06:34:45;9.52;;;8.48;;
9934;SDS011;5006;41.828;23.478;2024-01-07T06:35:52;8.73;;;7.38;;
9934;SDS011;5006;41.828;23.478;2024-01-07T06:36:58;7.70;;;6.20;;
9934;SDS011;5006;41.828;23.478;2024-01-07T06:38:04;4.53;;;3.35;;
9934;SDS011;5006;41.828;23.478;2024-01-07T06:39:10;9.40;;;6.93;;
9934;SDS011;5006;41.828;23.478;2024-01-07T06:40:16;10.90;;;9.20;;
9934;SDS011;5006;41.828;23.478;2024-01-07T06:41:22;9.68;;;7.18;;
9934;SDS011;5006;41.828;23.478;2024-01-07T06:42:27;23.58;;;18.23;;
9934;SDS011;5006;41.828;23.478;2024-01-07T06:43:34;15.75;;;13.43;;
9934;SDS011;5006;41.828;23.478;2024-01-07T06:44:39;12.68;;;11.05;;